KMGY/MGY METAR and TAF weather

Enter ICAO airport designator
Station Type Date Time Source
KMGY METAR 2023/02/04 02:53 UTC NOAA

KMGY 040253Z AUTO 02004KT 10SM CLR M08/M14 A3052 RMK AO2 SLP352 T10831144 58000


Station Type Date Time Source
KMGY Decoded METAR 2023/02/04 02:53 UTC NOAA

DAYTON WRIGHT BROTHERS AIRPORT , OH, United States (KMGY) 39-36N 84-14W 289M
Feb 03, 2023 - 09:53 PM EST / 2023.02.04 0253 UTC
Wind: from the NNE (020 degrees) at 5 MPH (4 KT):0
Visibility: 10 mile(s):0
Sky conditions: clear
Temperature: 17.1 F (-8.3 C)
Windchill: 10 F (-12 C):1
Dew Point: 6.1 F (-14.4 C)
Relative Humidity: 61%
Pressure (altimeter): 30.52 in. Hg (1033 hPa)
Pressure tendency: 0.00 inches (0.0 hPa) lower than three hours ago
ob: KMGY 040253Z AUTO 02004KT 10SM CLR M08/M14 A3052 RMK AO2 SLP352 T10831144 58000
cycle: 3

Station Type Date Time Source
KMGY TAF UTC NOAA

Error!

Example: see airport list